This is the latest recevied weather packets stored in our database for station/object KY0TEQ-13. If no packets are shown the sender has not sent any weather packets the latest 10 day(s).
| Time | Temp. | Humidity | Pressure | Rain* | Wind** | Luminosity | Snow |
|---|---|---|---|---|---|---|---|
| 1777563802 | 12.22° C | 25% | 1300.9 hPa | 0 mm | - | 490 W/m² | - |
| 1777563499 | 12.22° C | 28% | 1300.9 hPa | 0 mm | - | 475 W/m² | - |
| 1777563198 | 12.22° C | 27% | 1301 hPa | 0 mm | - | 460 W/m² | - |
| 1777562895 | 11.67° C | 29% | 1301 hPa | 0 mm | - | 442 W/m² | - |
| 1777562591 | 11.67° C | 26% | 1301.1 hPa | 0 mm | - | 426 W/m² | - |
| 1777562289 | 10.56° C | 29% | 1301 hPa | 0 mm | - | 409 W/m² | - |
| 1777561986 | 10.56° C | 33% | 1301 hPa | 0 mm | - | 392 W/m² | - |
| 1777561684 | 10° C | 34% | 1300.9 hPa | 0 mm | - | 373 W/m² | - |
| 1777561379 | 10° C | 34% | 1301.1 hPa | 0 mm | - | 354 W/m² | - |
| 1777561074 | 10° C | 37% | 1301.2 hPa | 0 mm | - | 334 W/m² | - |
| 1777560770 | 10° C | 38% | 1301.2 hPa | 0 mm | - | 315 W/m² | - |
| 1777560467 | 10° C | 37% | 1301.2 hPa | 0 mm | - | 295 W/m² | - |
| 1777560165 | 10° C | 37% | 1301.2 hPa | 0 mm | - | 277 W/m² | - |
| 1777559861 | 10.56° C | 34% | 1301.3 hPa | 0 mm | - | 259 W/m² | - |
| 1777559557 | 10° C | 33% | 1301.5 hPa | 0 mm | - | 243 W/m² | - |
| 1777559255 | 10.56° C | 34% | 1301.6 hPa | 0 mm | - | 227 W/m² | - |
| 1777558950 | 9.44° C | 35% | 1301.5 hPa | 0 mm | - | 211 W/m² | - |
| 1777558646 | 8.89° C | 36% | 1301.5 hPa | 0 mm | - | 195 W/m² | - |
| 1777558341 | 8.33° C | 40% | 1301.6 hPa | 0 mm | - | 181 W/m² | - |
| 1777558039 | 7.78° C | 41% | 1301.6 hPa | 0 mm | - | 159 W/m² | - |
| 1777557734 | 8.33° C | 39% | 1301.3 hPa | 0 mm | - | 155 W/m² | - |
| 1777557431 | 7.78° C | 41% | 1301.6 hPa | 0 mm | - | 140 W/m² | - |
| 1777557128 | 8.89° C | 38% | 1301.6 hPa | 0 mm | - | 127 W/m² | - |
| 1777556823 | 7.22° C | 41% | 1301.6 hPa | 0 mm | - | 115 W/m² | - |
| 1777556520 | 6.67° C | 43% | 1301.3 hPa | 0 mm | - | 101 W/m² | - |
* Rain latest hour (hover to see other rain measurements)
** Current wind speed in m/s (hover to see current wind gust speed)